Time;durP1;ratioP1;P1;durP2;ratioP2;P2;SDS_P1;SDS_P2;PMS_P1;PMS_P2;Temp;Humidity;BMP_temperature;BMP_pressure;BME280_temperature;BME280_humidity;BME280_pressure;Samples;Min_cycle;Max_cycle;Signal;HPM_P1;HPM_P2
2022/10/17 00:18:56;;;;;;;;;;;;;;;12.81;73.42969;101673.7;;;;-76
2022/10/17 00:40:28;;;;;;;6.8;2.1;;;;;;;;;;;;;-75
2022/10/17 02:05:53;;;;;;;;;;;;;;;12.64;76.49805;101530.8;;;;-76
2022/10/17 04:00:58;;;;;;;;;;;;;;;13.43;82.56055;101531.8;;;;-73
2022/10/17 04:09:17;;;;;;;;;;;;;;;13.43;82.24902;101516.9;;;;-73
2022/10/17 04:40:27;;;;;;;;;;;;;;;13.37;80.75879;101544.7;;;;-77
2022/10/17 05:01:13;;;;;;;;;;;;;;;13.53;81.66504;101555.4;;;;-74
2022/10/17 05:06:13;;;;;;;;;;;;;;;13.67;82.80566;101572;;;;-75
2022/10/17 05:10:08;;;;;;;9.6;4.5;;;;;;;;;;;;;-75
2022/10/17 05:11:17;;;;;;;;;;;;;;;13.69;82.6543;101553.1;;;;-75
2022/10/17 05:16:11;;;;;;;;;;;;;;;13.82;84.05957;101560.3;;;;-75
2022/10/17 05:21:11;;;;;;;;;;;;;;;13.9;83.62988;101556;;;;-75
2022/10/17 05:26:12;;;;;;;;;;;;;;;13.95;83.61621;101563.9;;;;-75
2022/10/17 05:31:12;;;;;;;;;;;;;;;14;84.22852;101562.9;;;;-74
2022/10/17 05:36:11;;;;;;;;;;;;;;;14.03;84.32227;101560.8;;;;-74
2022/10/17 05:40:12;;;;;;;7.5;4.6;;;;;;;;;;;;;-76
2022/10/17 05:41:13;;;;;;;;;;;;;;;14.12;85.66504;101583.5;;;;-75
2022/10/17 05:46:12;;;;;;;;;;;;;;;14.19;85.85742;101583;;;;-75
2022/10/17 05:51:11;;;;;;;;;;;;;;;14.28;86.19727;101592.4;;;;-74
2022/10/17 05:56:14;;;;;;;;;;;;;;;14.29;85.59863;101585.8;;;;-74
2022/10/17 06:01:11;;;;;;;;;;;;;;;14.32;85.64844;101576.8;;;;-74
2022/10/17 06:06:12;;;;;;;;;;;;;;;14.32;85.21387;101568.1;;;;-75
2022/10/17 06:10:11;;;;;;;9.5;5.1;;;;;;;;;;;;;-76
2022/10/17 06:11:11;;;;;;;;;;;;;;;14.34;86.47656;101567.1;;;;-75
2022/10/17 06:16:11;;;;;;;;;;;;;;;14.42;87.41699;101584.4;;;;-75
2022/10/17 06:37:02;;;;;;;;;;;;;;;14.43;85.39258;101612;;;;-75
2022/10/17 06:40:13;;;;;;;9.8;5.3;;;;;;;;;;;;;-74
2022/10/17 06:41:34;;;;;;;;;;;;;;;14.36;85.62207;101633.1;;;;-75
2022/10/17 06:46:34;;;;;;;;;;;;;;;14.45;86.12988;101653.3;;;;-75
2022/10/17 06:51:34;;;;;;;;;;;;;;;14.51;86.79883;101656.5;;;;-74
2022/10/17 06:56:34;;;;;;;;;;;;;;;14.55;86.49512;101654.8;;;;-76
2022/10/17 07:01:34;;;;;;;;;;;;;;;14.56;86.29688;101655.4;;;;-76
2022/10/17 07:06:37;;;;;;;;;;;;;;;14.6;86.16992;101664;;;;-76
2022/10/17 07:10:12;;;;;;;12.4;5.5;;;;;;;;;;;;;-74
2022/10/17 07:11:34;;;;;;;;;;;;;;;14.63;85.96484;101654.1;;;;-74
2022/10/17 07:16:34;;;;;;;;;;;;;;;14.63;85.36426;101652.6;;;;-75
2022/10/17 07:21:34;;;;;;;;;;;;;;;14.65;84.71973;101662.2;;;;-76
2022/10/17 07:26:34;;;;;;;;;;;;;;;14.69;85.39746;101685.1;;;;-76
2022/10/17 07:31:34;;;;;;;;;;;;;;;14.72;85.26953;101685.9;;;;-74
2022/10/17 07:36:34;;;;;;;;;;;;;;;14.77;86.16992;101701.3;;;;-75
2022/10/17 07:40:14;;;;;;;9;5.3;;;;;;;;;;;;;-74
2022/10/17 07:41:34;;;;;;;;;;;;;;;14.78;85.79297;101696.5;;;;-74
2022/10/17 07:46:34;;;;;;;;;;;;;;;14.82;86.37012;101743.9;;;;-74
2022/10/17 07:51:34;;;;;;;;;;;;;;;14.88;87.21973;101760.9;;;;-74
2022/10/17 07:56:34;;;;;;;;;;;;;;;14.9;87.10938;101759.9;;;;-74
2022/10/17 08:01:34;;;;;;;;;;;;;;;14.97;87.61426;101781.9;;;;-75
2022/10/17 08:06:34;;;;;;;;;;;;;;;15.05;87.89844;101810.3;;;;-74
2022/10/17 08:10:16;;;;;;;11;5.9;;;;;;;;;;;;;-74
2022/10/17 08:11:35;;;;;;;;;;;;;;;15.12;88.03418;101811.9;;;;-74
2022/10/17 08:16:36;;;;;;;;;;;;;;;15.22;88.60059;101826.5;;;;-74
2022/10/17 08:21:34;;;;;;;;;;;;;;;15.31;89.06641;101843.4;;;;-74
2022/10/17 08:26:34;;;;;;;;;;;;;;;15.35;89.95508;101860.7;;;;-75
2022/10/17 08:31:35;;;;;;;;;;;;;;;15.37;90.2041;101854.9;;;;-76
2022/10/17 08:36:45;;;;;;;;;;;;;;;15.42;90.8623;101859.4;;;;-74
2022/10/17 08:40:20;;;;;;;11.3;5.5;;;;;;;;;;;;;-75
2022/10/17 08:41:43;;;;;;;;;;;;;;;15.38;90.85547;101876;;;;-75
2022/10/17 08:46:40;;;;;;;;;;;;;;;15.4;91.69336;101877.3;;;;-75
2022/10/17 08:51:36;;;;;;;;;;;;;;;15.4;91.57227;101861.5;;;;-75
2022/10/17 08:56:36;;;;;;;;;;;;;;;15.36;91.9668;101844.5;;;;-76
2022/10/17 09:01:44;;;;;;;;;;;;;;;15.32;91.51074;101839.2;;;;-78
2022/10/17 09:06:36;;;;;;;;;;;;;;;15.31;91.27539;101822.9;;;;-76
2022/10/17 09:10:23;;;;;;;7.7;5.1;;;;;;;;;;;;;-77
2022/10/17 09:11:46;;;;;;;;;;;;;;;15.29;90.65625;101809.4;;;;-77
2022/10/17 09:16:41;;;;;;;;;;;;;;;15.27;89.76172;101802.5;;;;-77
2022/10/17 09:21:39;;;;;;;;;;;;;;;15.28;89.42969;101822.8;;;;-77
2022/10/17 09:26:34;;;;;;;;;;;;;;;15.32;89.9707;101859.2;;;;-75
2022/10/17 09:31:37;;;;;;;;;;;;;;;15.37;90.38281;101869.8;;;;-77
2022/10/17 09:36:36;;;;;;;;;;;;;;;15.4;90.45703;101873.7;;;;-77
2022/10/17 09:40:22;;;;;;;11;5.2;;;;;;;;;;;;;-77
2022/10/17 09:41:36;;;;;;;;;;;;;;;15.41;89.92188;101869.8;;;;-77
2022/10/17 09:46:37;;;;;;;;;;;;;;;15.42;89.98145;101857.2;;;;-76
2022/10/17 09:51:35;;;;;;;;;;;;;;;15.46;89.68945;101871.9;;;;-77
2022/10/17 09:56:44;;;;;;;;;;;;;;;15.5;90.56738;101873.6;;;;-77
2022/10/17 10:01:34;;;;;;;;;;;;;;;15.54;90.61914;101904.4;;;;-76
2022/10/17 10:06:34;;;;;;;;;;;;;;;15.56;90.76953;101906;;;;-76
2022/10/17 10:10:30;;;;;;;8.1;4.7;;;;;;;;;;;;;-76
2022/10/17 10:11:45;;;;;;;;;;;;;;;15.58;91.12891;101925.4;;;;-75
2022/10/17 10:16:44;;;;;;;;;;;;;;;15.62;90.95898;101944.6;;;;-76
2022/10/17 10:21:34;;;;;;;;;;;;;;;15.64;91.49902;101945.3;;;;-77
2022/10/17 10:26:36;;;;;;;;;;;;;;;15.72;91.11426;101946.1;;;;-77
2022/10/17 10:31:41;;;;;;;;;;;;;;;15.8;91.29785;101941;;;;-76
2022/10/17 10:36:48;;;;;;;;;;;;;;;15.86;91.49902;101964.5;;;;-77
2022/10/17 10:40:24;;;;;;;6.1;2.7;;;;;;;;;;;;;-77
2022/10/17 10:41:47;;;;;;;;;;;;;;;15.84;90.21191;101977.8;;;;-77
2022/10/17 10:46:34;;;;;;;;;;;;;;;15.8;90.13672;101983.4;;;;-77
2022/10/17 10:51:36;;;;;;;;;;;;;;;15.75;89.2666;101987.1;;;;-77
2022/10/17 10:56:37;;;;;;;;;;;;;;;15.69;89.13086;101987.1;;;;-77
2022/10/17 11:01:41;;;;;;;;;;;;;;;15.66;88.66895;101985.6;;;;-75
2022/10/17 11:06:37;;;;;;;;;;;;;;;15.63;88.46289;101995.1;;;;-77
2022/10/17 11:10:28;;;;;;;3;1.9;;;;;;;;;;;;;-76
2022/10/17 11:11:38;;;;;;;;;;;;;;;15.64;89.09961;102005.2;;;;-76
2022/10/17 11:16:38;;;;;;;;;;;;;;;15.63;89.03027;102012.5;;;;-76
2022/10/17 11:21:38;;;;;;;;;;;;;;;15.61;89.02637;102020.2;;;;-75
2022/10/17 11:26:36;;;;;;;;;;;;;;;15.61;89.04883;102037;;;;-71
2022/10/17 11:31:37;;;;;;;;;;;;;;;15.6;88.90039;102043;;;;-71
2022/10/17 11:36:35;;;;;;;;;;;;;;;15.59;88.47559;102046.7;;;;-75
2022/10/17 11:40:30;;;;;;;4.2;1.7;;;;;;;;;;;;;-76
2022/10/17 11:41:36;;;;;;;;;;;;;;;15.58;88.39648;102045.4;;;;-76
2022/10/17 11:46:36;;;;;;;;;;;;;;;15.59;88.18359;102056.6;;;;-76
2022/10/17 11:51:39;;;;;;;;;;;;;;;15.59;87.87109;102071.9;;;;-75
2022/10/17 11:56:37;;;;;;;;;;;;;;;15.62;88.12402;102078.4;;;;-75
2022/10/17 12:01:37;;;;;;;;;;;;;;;15.65;89.5459;102078.9;;;;-75
2022/10/17 12:06:42;;;;;;;;;;;;;;;15.68;88.88477;102082;;;;-76
2022/10/17 12:10:36;;;;;;;3.2;1.6;;;;;;;;;;;;;-74
2022/10/17 12:11:44;;;;;;;;;;;;;;;15.74;89.03027;102086.6;;;;-76
2022/10/17 12:16:46;;;;;;;;;;;;;;;15.83;88.65723;102093.1;;;;-76
2022/10/17 12:21:47;;;;;;;;;;;;;;;15.89;88.09863;102097.3;;;;-76
2022/10/17 12:26:34;;;;;;;;;;;;;;;15.93;88.26367;102092.7;;;;-75
2022/10/17 12:31:34;;;;;;;;;;;;;;;15.98;87.69336;102100.9;;;;-74
2022/10/17 12:36:48;;;;;;;;;;;;;;;16.01;87.43066;102097.5;;;;-76
2022/10/17 12:40:50;;;;;;;2.6;1.5;;;;;;;;;;;;;-74
2022/10/17 12:41:45;;;;;;;;;;;;;;;16.02;87.28711;102102.5;;;;-76
2022/10/17 12:46:58;;;;;;;;;;;;;;;16.04;86.61914;102111;;;;-74
2022/10/17 12:51:44;;;;;;;;;;;;;;;16.04;86.37402;102113.1;;;;-75
2022/10/17 12:56:39;;;;;;;;;;;;;;;16.04;86.38477;102107.9;;;;-76
2022/10/17 13:01:35;;;;;;;;;;;;;;;16.07;85.78613;102104.7;;;;-76
2022/10/17 13:06:38;;;;;;;;;;;;;;;16.1;85.91406;102109.8;;;;-75
2022/10/17 13:10:31;;;;;;;4.5;1.6;;;;;;;;;;;;;-74
2022/10/17 13:11:35;;;;;;;;;;;;;;;16.15;85.1416;102110.8;;;;-75
2022/10/17 13:16:38;;;;;;;;;;;;;;;16.16;85.24414;102115.2;;;;-76
2022/10/17 13:21:34;;;;;;;;;;;;;;;16.21;85.5459;102128.2;;;;-74
2022/10/17 13:26:35;;;;;;;;;;;;;;;16.22;84.99902;102142.3;;;;-76
2022/10/17 13:31:36;;;;;;;;;;;;;;;16.24;85.5957;102139.6;;;;-76
2022/10/17 13:36:36;;;;;;;;;;;;;;;16.24;84.86816;102151.2;;;;-75
2022/10/17 13:40:34;;;;;;;4;1.5;;;;;;;;;;;;;-75
2022/10/17 13:41:37;;;;;;;;;;;;;;;16.24;84.49707;102150.4;;;;-75
2022/10/17 13:46:35;;;;;;;;;;;;;;;16.23;84.76563;102150.6;;;;-75
2022/10/17 13:51:34;;;;;;;;;;;;;;;16.23;85.14648;102152.5;;;;-78
2022/10/17 13:56:35;;;;;;;;;;;;;;;16.25;85.00391;102152.9;;;;-76
2022/10/17 14:01:35;;;;;;;;;;;;;;;16.28;85.17871;102137.4;;;;-75
2022/10/17 14:06:34;;;;;;;;;;;;;;;16.33;84.98438;102133;;;;-74
2022/10/17 14:10:36;;;;;;;4.4;1.7;;;;;;;;;;;;;-75
2022/10/17 14:11:37;;;;;;;;;;;;;;;16.38;84.56934;102142.9;;;;-75
2022/10/17 14:16:37;;;;;;;;;;;;;;;16.45;84.7627;102148.9;;;;-74
2022/10/17 14:21:34;;;;;;;;;;;;;;;16.5;84.86133;102154.5;;;;-75
2022/10/17 14:26:36;;;;;;;;;;;;;;;16.53;84.41992;102171.8;;;;-75
2022/10/17 14:31:38;;;;;;;;;;;;;;;16.54;84.35449;102180;;;;-75
2022/10/17 14:36:39;;;;;;;;;;;;;;;16.57;84.18945;102186.6;;;;-75
2022/10/17 14:40:37;;;;;;;4.5;1.8;;;;;;;;;;;;;-75
2022/10/17 14:41:35;;;;;;;;;;;;;;;16.56;84.01074;102188;;;;-74
2022/10/17 14:46:34;;;;;;;;;;;;;;;16.55;83.86328;102197.7;;;;-75
2022/10/17 14:51:34;;;;;;;;;;;;;;;16.56;83.87598;102206.6;;;;-75
2022/10/17 14:56:38;;;;;;;;;;;;;;;16.56;84.02148;102206.3;;;;-75
2022/10/17 15:01:34;;;;;;;;;;;;;;;16.53;83.88184;102212.1;;;;-74
2022/10/17 15:06:35;;;;;;;;;;;;;;;16.52;83.98145;102232.9;;;;-75
2022/10/17 15:10:40;;;;;;;4.6;1.6;;;;;;;;;;;;;-75
2022/10/17 15:11:34;;;;;;;;;;;;;;;16.51;83.70996;102230.6;;;;-73
2022/10/17 15:16:35;;;;;;;;;;;;;;;16.49;84.05273;102235.9;;;;-74
2022/10/17 15:21:35;;;;;;;;;;;;;;;16.47;84.09375;102239.5;;;;-76
2022/10/17 15:26:36;;;;;;;;;;;;;;;16.44;84.15625;102234;;;;-74
2022/10/17 15:31:34;;;;;;;;;;;;;;;16.4;84.1582;102237.4;;;;-74
2022/10/17 15:36:37;;;;;;;;;;;;;;;16.37;84.08594;102242.8;;;;-73
2022/10/17 15:40:39;;;;;;;6.3;1.8;;;;;;;;;;;;;-75
2022/10/17 15:41:35;;;;;;;;;;;;;;;16.32;84.21191;102251;;;;-74
2022/10/17 15:46:38;;;;;;;;;;;;;;;16.28;84.21484;102243.3;;;;-76
2022/10/17 15:51:34;;;;;;;;;;;;;;;16.23;84.64258;102248.5;;;;-74
2022/10/17 15:56:35;;;;;;;;;;;;;;;16.19;84.62207;102259.6;;;;-76
2022/10/17 16:01:35;;;;;;;;;;;;;;;16.13;84.68164;102261.7;;;;-76
2022/10/17 16:06:36;;;;;;;;;;;;;;;16.08;84.92676;102267.5;;;;-74
2022/10/17 16:10:42;;;;;;;6.9;1.9;;;;;;;;;;;;;-75
2022/10/17 16:11:36;;;;;;;;;;;;;;;16.02;84.72363;102269.9;;;;-75
2022/10/17 16:16:34;;;;;;;;;;;;;;;15.96;84.60156;102284.5;;;;-76
2022/10/17 16:21:36;;;;;;;;;;;;;;;15.91;84.7832;102290.5;;;;-70
2022/10/17 16:26:35;;;;;;;;;;;;;;;15.84;84.67969;102295.6;;;;-70
2022/10/17 16:31:36;;;;;;;;;;;;;;;15.75;84.40527;102303.6;;;;-70
2022/10/17 16:36:34;;;;;;;;;;;;;;;15.69;84.25879;102302.2;;;;-75
2022/10/17 16:40:43;;;;;;;5.8;1.7;;;;;;;;;;;;;-75
2022/10/17 16:41:35;;;;;;;;;;;;;;;15.61;84.04395;102310.5;;;;-74
2022/10/17 16:46:36;;;;;;;;;;;;;;;15.52;84.78613;102305.6;;;;-74
2022/10/17 16:51:34;;;;;;;;;;;;;;;15.44;84.68164;102315.3;;;;-75
2022/10/17 16:56:34;;;;;;;;;;;;;;;15.38;84.88281;102310.1;;;;-73
2022/10/17 17:01:34;;;;;;;;;;;;;;;15.32;85.97656;102311.1;;;;-75
2022/10/17 17:06:34;;;;;;;;;;;;;;;15.29;85.52344;102319.1;;;;-75
2022/10/17 17:10:48;;;;;;;6.8;2;;;;;;;;;;;;;-75
2022/10/17 17:11:34;;;;;;;;;;;;;;;15.24;86.71973;102324.4;;;;-75
2022/10/17 17:16:34;;;;;;;;;;;;;;;15.2;86.91406;102329.7;;;;-75
2022/10/17 17:21:35;;;;;;;;;;;;;;;15.14;86.96777;102336.2;;;;-74
2022/10/17 17:26:35;;;;;;;;;;;;;;;15.09;87.23828;102332.9;;;;-75
2022/10/17 17:31:37;;;;;;;;;;;;;;;15.06;87.23242;102352.6;;;;-75
2022/10/17 17:36:36;;;;;;;;;;;;;;;15.02;86.68848;102361;;;;-76
2022/10/17 17:40:50;;;;;;;5.8;1.9;;;;;;;;;;;;;-75
2022/10/17 17:41:34;;;;;;;;;;;;;;;14.97;86.41211;102366.8;;;;-76
2022/10/17 17:46:35;;;;;;;;;;;;;;;14.93;86.17969;102372.5;;;;-75
2022/10/17 17:51:36;;;;;;;;;;;;;;;14.9;85.79492;102381.4;;;;-75
2022/10/17 17:56:34;;;;;;;;;;;;;;;14.87;86.14648;102399.7;;;;-76
2022/10/17 18:01:37;;;;;;;;;;;;;;;14.83;86.55078;102399.8;;;;-75
2022/10/17 18:06:34;;;;;;;;;;;;;;;14.78;86.70898;102387;;;;-75
2022/10/17 18:10:50;;;;;;;6.2;2.1;;;;;;;;;;;;;-75
2022/10/17 18:11:34;;;;;;;;;;;;;;;14.74;86.04199;102399.5;;;;-76
2022/10/17 18:16:35;;;;;;;;;;;;;;;14.72;86.70801;102405.7;;;;-75
2022/10/17 18:21:34;;;;;;;;;;;;;;;14.67;86.8418;102410.5;;;;-74
2022/10/17 18:26:34;;;;;;;;;;;;;;;14.62;86.11914;102422.5;;;;-75
2022/10/17 18:31:34;;;;;;;;;;;;;;;14.61;86.46191;102437.8;;;;-75
2022/10/17 18:36:36;;;;;;;;;;;;;;;14.58;86.8457;102442.6;;;;-76
2022/10/17 18:40:49;;;;;;;5.5;2;;;;;;;;;;;;;-75
2022/10/17 18:41:37;;;;;;;;;;;;;;;14.55;86.51758;102441.5;;;;-75
2022/10/17 18:46:39;;;;;;;;;;;;;;;14.52;86.35645;102433;;;;-75
2022/10/17 18:51:34;;;;;;;;;;;;;;;14.49;86.77246;102448.5;;;;-76
2022/10/17 18:56:34;;;;;;;;;;;;;;;14.45;86.31934;102444.3;;;;-75
2022/10/17 19:01:34;;;;;;;;;;;;;;;14.43;86.39453;102442.1;;;;-75
2022/10/17 19:06:37;;;;;;;;;;;;;;;14.43;87.27441;102445.7;;;;-74
2022/10/17 19:10:51;;;;;;;6.9;2.1;;;;;;;;;;;;;-74
2022/10/17 19:11:35;;;;;;;;;;;;;;;14.43;87.22949;102446.7;;;;-74
2022/10/17 19:16:35;;;;;;;;;;;;;;;14.39;87.88965;102444.8;;;;-75
2022/10/17 19:21:37;;;;;;;;;;;;;;;14.37;87.88574;102449.4;;;;-75
2022/10/17 19:26:35;;;;;;;;;;;;;;;14.33;87.14355;102443.6;;;;-75
2022/10/17 19:31:35;;;;;;;;;;;;;;;14.34;86.73242;102449.6;;;;-75
2022/10/17 19:36:36;;;;;;;;;;;;;;;14.33;87.37695;102450.2;;;;-74
2022/10/17 19:40:52;;;;;;;5.5;2.1;;;;;;;;;;;;;-76
2022/10/17 19:41:34;;;;;;;;;;;;;;;14.28;86.4209;102463.4;;;;-75
2022/10/17 19:46:35;;;;;;;;;;;;;;;14.3;86.21191;102469;;;;-76
2022/10/17 19:51:34;;;;;;;;;;;;;;;14.27;86.06152;102475.6;;;;-75
2022/10/17 19:56:36;;;;;;;;;;;;;;;14.23;85.67578;102483.2;;;;-75
2022/10/17 20:01:37;;;;;;;;;;;;;;;14.19;85.59082;102495.3;;;;-75
2022/10/17 20:06:34;;;;;;;;;;;;;;;14.14;85.44629;102503.7;;;;-75
2022/10/17 20:10:53;;;;;;;7.2;1.9;;;;;;;;;;;;;-75
2022/10/17 20:11:34;;;;;;;;;;;;;;;14.09;84.99219;102503;;;;-75
2022/10/17 20:16:35;;;;;;;;;;;;;;;14.05;85.29688;102513.4;;;;-75
2022/10/17 20:21:35;;;;;;;;;;;;;;;14.03;85.50293;102524.6;;;;-74
2022/10/17 20:26:34;;;;;;;;;;;;;;;14;85.50684;102530.7;;;;-75
2022/10/17 20:31:34;;;;;;;;;;;;;;;13.96;85.17773;102541.3;;;;-75
2022/10/17 20:36:35;;;;;;;;;;;;;;;13.92;85.14746;102551.4;;;;-75
2022/10/17 20:40:55;;;;;;;5.5;1.9;;;;;;;;;;;;;-75
2022/10/17 20:41:34;;;;;;;;;;;;;;;13.89;85.11816;102557.1;;;;-74
2022/10/17 20:46:34;;;;;;;;;;;;;;;13.84;84.99805;102557.4;;;;-75
2022/10/17 20:51:37;;;;;;;;;;;;;;;13.79;85.26855;102560.7;;;;-75
2022/10/17 20:56:35;;;;;;;;;;;;;;;13.77;85.39844;102567.6;;;;-75
2022/10/17 21:01:35;;;;;;;;;;;;;;;13.78;85.35352;102574.1;;;;-76
2022/10/17 21:06:37;;;;;;;;;;;;;;;13.7;85.56152;102583.4;;;;-75
2022/10/17 21:10:56;;;;;;;4.3;1.8;;;;;;;;;;;;;-74
2022/10/17 21:11:34;;;;;;;;;;;;;;;13.67;85.38965;102574.2;;;;-75
2022/10/17 21:16:35;;;;;;;;;;;;;;;13.63;85.72559;102587.1;;;;-74
2022/10/17 21:21:35;;;;;;;;;;;;;;;13.61;85.4668;102595.6;;;;-75
2022/10/17 21:26:34;;;;;;;;;;;;;;;13.55;85.07813;102587.7;;;;-75
2022/10/17 21:31:35;;;;;;;;;;;;;;;13.52;85.51563;102591.8;;;;-75
2022/10/17 21:36:34;;;;;;;;;;;;;;;13.49;85.25391;102595.3;;;;-74
2022/10/17 21:40:57;;;;;;;4.5;1.8;;;;;;;;;;;;;-76
2022/10/17 21:41:34;;;;;;;;;;;;;;;13.44;85.3457;102590.8;;;;-75
2022/10/17 21:46:34;;;;;;;;;;;;;;;13.45;85.60156;102594.8;;;;-74
2022/10/17 21:51:34;;;;;;;;;;;;;;;13.44;85.41211;102605.7;;;;-75
2022/10/17 21:56:35;;;;;;;;;;;;;;;13.42;85.30762;102610.6;;;;-75
2022/10/17 22:01:35;;;;;;;;;;;;;;;13.4;85.45898;102614.4;;;;-76
2022/10/17 22:06:35;;;;;;;;;;;;;;;13.4;85.13672;102618.6;;;;-75
2022/10/17 22:10:59;;;;;;;6.1;1.9;;;;;;;;;;;;;-75
2022/10/17 22:11:35;;;;;;;;;;;;;;;13.34;84.88184;102622.2;;;;-75
2022/10/17 22:16:34;;;;;;;;;;;;;;;13.3;85.04004;102619;;;;-75
2022/10/17 22:21:35;;;;;;;;;;;;;;;13.3;85.18457;102624.5;;;;-75
2022/10/17 22:26:35;;;;;;;;;;;;;;;13.26;85.37598;102626.6;;;;-75
2022/10/17 22:31:34;;;;;;;;;;;;;;;13.23;84.90332;102628;;;;-75
2022/10/17 22:36:34;;;;;;;;;;;;;;;13.18;85.30371;102632.7;;;;-75
2022/10/17 22:41:00;;;;;;;5.2;1.8;;;;;;;;;;;;;-75
2022/10/17 22:41:34;;;;;;;;;;;;;;;13.16;84.85742;102655.6;;;;-75
2022/10/17 22:46:34;;;;;;;;;;;;;;;13.16;84.80078;102657.7;;;;-75
2022/10/17 22:51:34;;;;;;;;;;;;;;;13.14;85.05273;102653.2;;;;-75
2022/10/17 22:56:34;;;;;;;;;;;;;;;13.14;84.93066;102645.5;;;;-75
2022/10/17 23:01:34;;;;;;;;;;;;;;;13.14;84.89648;102639.8;;;;-75
2022/10/17 23:06:34;;;;;;;;;;;;;;;13.11;84.84668;102643;;;;-74
2022/10/17 23:11:01;;;;;;;5;2;;;;;;;;;;;;;-74
2022/10/17 23:11:34;;;;;;;;;;;;;;;13.1;84.76758;102649;;;;-75
2022/10/17 23:16:34;;;;;;;;;;;;;;;13.08;84.74023;102637.4;;;;-75
2022/10/17 23:21:35;;;;;;;;;;;;;;;13.04;84.8457;102640.8;;;;-74
2022/10/17 23:26:34;;;;;;;;;;;;;;;13.01;85.23926;102641;;;;-75
2022/10/17 23:31:34;;;;;;;;;;;;;;;13;85.02637;102640.1;;;;-75
2022/10/17 23:36:34;;;;;;;;;;;;;;;12.97;84.9541;102635.7;;;;-75
2022/10/17 23:41:04;;;;;;;5.9;2.1;;;;;;;;;;;;;-75
2022/10/17 23:41:34;;;;;;;;;;;;;;;12.91;84.81934;102647.4;;;;-75
2022/10/17 23:46:34;;;;;;;;;;;;;;;12.87;84.74414;102651.2;;;;-73
2022/10/17 23:51:35;;;;;;;;;;;;;;;12.81;84.52246;102644.8;;;;-75
2022/10/17 23:56:34;;;;;;;;;;;;;;;12.75;84.75488;102637.6;;;;-77
